sensor_id;sensor_type;location;lat;lon;timestamp;P1;durP1;ratioP1;P2;durP2;ratioP2
36573;SDS011;22578;42.668;23.232;2023-03-02T00:02:22;1.00;;;1.00;;
36573;SDS011;22578;42.668;23.232;2023-03-02T00:05:43;1.00;;;1.00;;
36573;SDS011;22578;42.668;23.232;2023-03-02T00:09:06;1.10;;;1.10;;
36573;SDS011;22578;42.668;23.232;2023-03-02T00:12:26;1.13;;;1.13;;
36573;SDS011;22578;42.668;23.232;2023-03-02T00:15:47;1.10;;;1.10;;
36573;SDS011;22578;42.668;23.232;2023-03-02T00:19:07;1.10;;;1.10;;
36573;SDS011;22578;42.668;23.232;2023-03-02T00:22:28;1.20;;;1.20;;
36573;SDS011;22578;42.668;23.232;2023-03-02T00:25:48;1.02;;;1.02;;
36573;SDS011;22578;42.668;23.232;2023-03-02T00:29:08;1.80;;;1.70;;
36573;SDS011;22578;42.668;23.232;2023-03-02T00:32:29;1.00;;;1.00;;
36573;SDS011;22578;42.668;23.232;2023-03-02T00:35:49;1.10;;;1.10;;
36573;SDS011;22578;42.668;23.232;2023-03-02T00:39:09;1.10;;;1.10;;
36573;SDS011;22578;42.668;23.232;2023-03-02T00:42:30;1.00;;;1.00;;
36573;SDS011;22578;42.668;23.232;2023-03-02T00:45:50;1.00;;;1.00;;
36573;SDS011;22578;42.668;23.232;2023-03-02T00:49:11;1.00;;;1.00;;
36573;SDS011;22578;42.668;23.232;2023-03-02T00:52:32;1.20;;;1.20;;
36573;SDS011;22578;42.668;23.232;2023-03-02T00:55:53;1.00;;;1.00;;
36573;SDS011;22578;42.668;23.232;2023-03-02T00:59:14;1.20;;;1.20;;
36573;SDS011;22578;42.668;23.232;2023-03-02T01:02:46;1.00;;;1.00;;
36573;SDS011;22578;42.668;23.232;2023-03-02T01:06:12;1.00;;;1.00;;
36573;SDS011;22578;42.668;23.232;2023-03-02T01:09:33;1.10;;;1.10;;
36573;SDS011;22578;42.668;23.232;2023-03-02T01:12:54;1.08;;;1.08;;
36573;SDS011;22578;42.668;23.232;2023-03-02T01:16:14;1.00;;;1.00;;
36573;SDS011;22578;42.668;23.232;2023-03-02T01:19:35;1.00;;;1.00;;
36573;SDS011;22578;42.668;23.232;2023-03-02T01:22:55;1.45;;;1.42;;
36573;SDS011;22578;42.668;23.232;2023-03-02T01:26:16;1.10;;;1.10;;
36573;SDS011;22578;42.668;23.232;2023-03-02T01:29:36;1.25;;;1.25;;
36573;SDS011;22578;42.668;23.232;2023-03-02T01:32:57;1.00;;;1.00;;
36573;SDS011;22578;42.668;23.232;2023-03-02T01:36:17;1.20;;;1.20;;
36573;SDS011;22578;42.668;23.232;2023-03-02T01:39:38;1.10;;;1.10;;
36573;SDS011;22578;42.668;23.232;2023-03-02T01:42:59;1.15;;;1.15;;
36573;SDS011;22578;42.668;23.232;2023-03-02T01:46:22;1.20;;;1.20;;
36573;SDS011;22578;42.668;23.232;2023-03-02T01:49:49;2.28;;;2.17;;
36573;SDS011;22578;42.668;23.232;2023-03-02T01:53:31;1.10;;;1.10;;
36573;SDS011;22578;42.668;23.232;2023-03-02T01:56:54;1.02;;;1.02;;
36573;SDS011;22578;42.668;23.232;2023-03-02T02:00:21;1.10;;;1.10;;
36573;SDS011;22578;42.668;23.232;2023-03-02T02:03:48;1.20;;;1.20;;
36573;SDS011;22578;42.668;23.232;2023-03-02T02:07:09;1.00;;;1.00;;
36573;SDS011;22578;42.668;23.232;2023-03-02T02:10:30;1.30;;;1.30;;
36573;SDS011;22578;42.668;23.232;2023-03-02T02:13:52;1.00;;;1.00;;
36573;SDS011;22578;42.668;23.232;2023-03-02T02:17:16;1.00;;;1.00;;
36573;SDS011;22578;42.668;23.232;2023-03-02T02:20:42;1.10;;;1.10;;
36573;SDS011;22578;42.668;23.232;2023-03-02T02:24:09;1.00;;;1.00;;
36573;SDS011;22578;42.668;23.232;2023-03-02T02:27:31;1.30;;;1.30;;
36573;SDS011;22578;42.668;23.232;2023-03-02T02:31:01;1.00;;;1.00;;
36573;SDS011;22578;42.668;23.232;2023-03-02T02:34:38;1.00;;;1.00;;
36573;SDS011;22578;42.668;23.232;2023-03-02T02:38:02;1.02;;;1.02;;
36573;SDS011;22578;42.668;23.232;2023-03-02T02:41:25;1.05;;;1.05;;
36573;SDS011;22578;42.668;23.232;2023-03-02T02:44:47;1.10;;;1.10;;
36573;SDS011;22578;42.668;23.232;2023-03-02T02:48:15;1.23;;;1.23;;
36573;SDS011;22578;42.668;23.232;2023-03-02T02:51:38;1.00;;;1.00;;
36573;SDS011;22578;42.668;23.232;2023-03-02T02:54:58;1.00;;;1.00;;
36573;SDS011;22578;42.668;23.232;2023-03-02T03:02:03;1.10;;;1.10;;
36573;SDS011;22578;42.668;23.232;2023-03-02T03:05:24;1.05;;;1.05;;
36573;SDS011;22578;42.668;23.232;2023-03-02T03:12:15;1.00;;;1.00;;
36573;SDS011;22578;42.668;23.232;2023-03-02T03:15:38;1.00;;;1.00;;
36573;SDS011;22578;42.668;23.232;2023-03-02T03:19:00;1.33;;;1.33;;
36573;SDS011;22578;42.668;23.232;2023-03-02T03:22:25;1.00;;;1.00;;
36573;SDS011;22578;42.668;23.232;2023-03-02T03:25:45;1.70;;;1.60;;
36573;SDS011;22578;42.668;23.232;2023-03-02T03:29:05;1.33;;;1.33;;
36573;SDS011;22578;42.668;23.232;2023-03-02T03:32:26;1.10;;;1.10;;
36573;SDS011;22578;42.668;23.232;2023-03-02T03:35:46;1.10;;;1.10;;
36573;SDS011;22578;42.668;23.232;2023-03-02T03:39:06;1.10;;;1.10;;
36573;SDS011;22578;42.668;23.232;2023-03-02T03:42:27;1.20;;;1.20;;
36573;SDS011;22578;42.668;23.232;2023-03-02T03:45:47;1.38;;;1.38;;
36573;SDS011;22578;42.668;23.232;2023-03-02T03:49:10;1.05;;;1.05;;
36573;SDS011;22578;42.668;23.232;2023-03-02T03:52:30;1.00;;;1.00;;
36573;SDS011;22578;42.668;23.232;2023-03-02T03:55:51;1.10;;;1.10;;
36573;SDS011;22578;42.668;23.232;2023-03-02T03:59:19;1.10;;;1.10;;
36573;SDS011;22578;42.668;23.232;2023-03-02T04:02:41;0.90;;;0.90;;
36573;SDS011;22578;42.668;23.232;2023-03-02T04:06:01;1.10;;;1.10;;
36573;SDS011;22578;42.668;23.232;2023-03-02T04:09:22;1.00;;;1.00;;
36573;SDS011;22578;42.668;23.232;2023-03-02T04:12:43;1.40;;;1.38;;
36573;SDS011;22578;42.668;23.232;2023-03-02T04:16:04;1.10;;;1.10;;
36573;SDS011;22578;42.668;23.232;2023-03-02T04:19:25;1.58;;;1.48;;
36573;SDS011;22578;42.668;23.232;2023-03-02T04:22:46;1.33;;;1.33;;
36573;SDS011;22578;42.668;23.232;2023-03-02T04:26:08;1.42;;;1.42;;
36573;SDS011;22578;42.668;23.232;2023-03-02T04:29:28;1.20;;;1.20;;
36573;SDS011;22578;42.668;23.232;2023-03-02T04:32:51;1.98;;;1.88;;
36573;SDS011;22578;42.668;23.232;2023-03-02T04:36:11;1.77;;;1.67;;
36573;SDS011;22578;42.668;23.232;2023-03-02T04:39:32;1.30;;;1.30;;
36573;SDS011;22578;42.668;23.232;2023-03-02T04:42:52;1.60;;;1.50;;
36573;SDS011;22578;42.668;23.232;2023-03-02T04:46:17;1.80;;;1.70;;
36573;SDS011;22578;42.668;23.232;2023-03-02T04:49:39;2.70;;;2.50;;
36573;SDS011;22578;42.668;23.232;2023-03-02T04:53:00;1.30;;;1.30;;
36573;SDS011;22578;42.668;23.232;2023-03-02T04:56:20;2.00;;;1.90;;
36573;SDS011;22578;42.668;23.232;2023-03-02T04:59:41;1.20;;;1.20;;
36573;SDS011;22578;42.668;23.232;2023-03-02T05:03:02;1.10;;;1.10;;
36573;SDS011;22578;42.668;23.232;2023-03-02T05:06:23;2.13;;;1.92;;
36573;SDS011;22578;42.668;23.232;2023-03-02T05:09:44;1.75;;;1.65;;
36573;SDS011;22578;42.668;23.232;2023-03-02T05:13:04;1.10;;;1.10;;
36573;SDS011;22578;42.668;23.232;2023-03-02T05:16:25;1.05;;;1.05;;
36573;SDS011;22578;42.668;23.232;2023-03-02T05:19:47;1.20;;;1.20;;
36573;SDS011;22578;42.668;23.232;2023-03-02T05:23:08;1.10;;;1.10;;
36573;SDS011;22578;42.668;23.232;2023-03-02T05:26:30;1.10;;;1.10;;
36573;SDS011;22578;42.668;23.232;2023-03-02T05:29:51;1.10;;;1.10;;
36573;SDS011;22578;42.668;23.232;2023-03-02T05:33:11;1.25;;;1.25;;
36573;SDS011;22578;42.668;23.232;2023-03-02T05:36:32;1.20;;;1.17;;
36573;SDS011;22578;42.668;23.232;2023-03-02T05:39:52;1.27;;;1.27;;
36573;SDS011;22578;42.668;23.232;2023-03-02T05:43:16;1.10;;;1.10;;
36573;SDS011;22578;42.668;23.232;2023-03-02T05:46:38;1.27;;;1.25;;
36573;SDS011;22578;42.668;23.232;2023-03-02T05:49:59;1.40;;;1.40;;
36573;SDS011;22578;42.668;23.232;2023-03-02T05:53:19;1.13;;;1.13;;
36573;SDS011;22578;42.668;23.232;2023-03-02T05:56:40;1.25;;;1.25;;
36573;SDS011;22578;42.668;23.232;2023-03-02T06:00:01;2.00;;;1.90;;
36573;SDS011;22578;42.668;23.232;2023-03-02T06:03:21;1.10;;;1.10;;
36573;SDS011;22578;42.668;23.232;2023-03-02T06:06:41;1.90;;;1.80;;
36573;SDS011;22578;42.668;23.232;2023-03-02T06:10:03;1.90;;;1.77;;
36573;SDS011;22578;42.668;23.232;2023-03-02T06:13:24;3.40;;;3.10;;
36573;SDS011;22578;42.668;23.232;2023-03-02T06:16:44;2.70;;;2.50;;
36573;SDS011;22578;42.668;23.232;2023-03-02T06:20:07;1.70;;;1.60;;
36573;SDS011;22578;42.668;23.232;2023-03-02T06:23:30;1.52;;;1.42;;
36573;SDS011;22578;42.668;23.232;2023-03-02T06:26:51;1.00;;;1.00;;
36573;SDS011;22578;42.668;23.232;2023-03-02T06:30:14;1.65;;;1.58;;
36573;SDS011;22578;42.668;23.232;2023-03-02T06:33:36;1.83;;;1.73;;
36573;SDS011;22578;42.668;23.232;2023-03-02T06:36:56;1.33;;;1.33;;
36573;SDS011;22578;42.668;23.232;2023-03-02T06:40:16;1.75;;;1.65;;
36573;SDS011;22578;42.668;23.232;2023-03-02T06:43:37;2.22;;;2.10;;
36573;SDS011;22578;42.668;23.232;2023-03-02T06:46:57;2.03;;;1.92;;
36573;SDS011;22578;42.668;23.232;2023-03-02T06:50:18;1.40;;;1.35;;
36573;SDS011;22578;42.668;23.232;2023-03-02T06:53:38;1.02;;;1.02;;
36573;SDS011;22578;42.668;23.232;2023-03-02T06:56:59;1.73;;;1.63;;
36573;SDS011;22578;42.668;23.232;2023-03-02T07:00:19;1.38;;;1.38;;
36573;SDS011;22578;42.668;23.232;2023-03-02T07:03:47;1.70;;;1.60;;
36573;SDS011;22578;42.668;23.232;2023-03-02T07:07:07;1.05;;;1.05;;
36573;SDS011;22578;42.668;23.232;2023-03-02T07:10:27;1.25;;;1.25;;
36573;SDS011;22578;42.668;23.232;2023-03-02T07:13:51;1.08;;;1.08;;
36573;SDS011;22578;42.668;23.232;2023-03-02T07:17:12;1.83;;;1.73;;
36573;SDS011;22578;42.668;23.232;2023-03-02T07:20:32;1.50;;;1.40;;
36573;SDS011;22578;42.668;23.232;2023-03-02T07:23:53;1.25;;;1.25;;
36573;SDS011;22578;42.668;23.232;2023-03-02T07:27:13;1.00;;;1.00;;
36573;SDS011;22578;42.668;23.232;2023-03-02T07:30:33;1.30;;;1.30;;
36573;SDS011;22578;42.668;23.232;2023-03-02T07:33:54;1.60;;;1.50;;
36573;SDS011;22578;42.668;23.232;2023-03-02T07:37:14;1.15;;;1.15;;
36573;SDS011;22578;42.668;23.232;2023-03-02T07:40:35;1.10;;;1.10;;
36573;SDS011;22578;42.668;23.232;2023-03-02T07:43:59;1.70;;;1.60;;
36573;SDS011;22578;42.668;23.232;2023-03-02T07:47:20;2.30;;;2.10;;
36573;SDS011;22578;42.668;23.232;2023-03-02T07:50:41;1.20;;;1.20;;
36573;SDS011;22578;42.668;23.232;2023-03-02T07:54:01;1.15;;;1.15;;
36573;SDS011;22578;42.668;23.232;2023-03-02T07:57:23;1.95;;;1.85;;
36573;SDS011;22578;42.668;23.232;2023-03-02T08:00:44;1.10;;;1.10;;
36573;SDS011;22578;42.668;23.232;2023-03-02T08:04:04;1.00;;;1.00;;
36573;SDS011;22578;42.668;23.232;2023-03-02T08:07:24;1.00;;;1.00;;
36573;SDS011;22578;42.668;23.232;2023-03-02T08:10:45;1.30;;;1.30;;
36573;SDS011;22578;42.668;23.232;2023-03-02T08:14:05;1.50;;;1.45;;
36573;SDS011;22578;42.668;23.232;2023-03-02T08:17:26;1.00;;;1.00;;
36573;SDS011;22578;42.668;23.232;2023-03-02T08:20:46;1.15;;;1.15;;
36573;SDS011;22578;42.668;23.232;2023-03-02T08:24:06;1.77;;;1.60;;
36573;SDS011;22578;42.668;23.232;2023-03-02T08:27:27;1.20;;;1.20;;
36573;SDS011;22578;42.668;23.232;2023-03-02T08:30:54;1.75;;;1.65;;
36573;SDS011;22578;42.668;23.232;2023-03-02T08:34:15;1.10;;;1.10;;
36573;SDS011;22578;42.668;23.232;2023-03-02T08:37:36;2.00;;;1.90;;
36573;SDS011;22578;42.668;23.232;2023-03-02T08:40:56;0.90;;;0.90;;
36573;SDS011;22578;42.668;23.232;2023-03-02T08:44:17;1.13;;;1.13;;
36573;SDS011;22578;42.668;23.232;2023-03-02T08:47:39;1.20;;;1.20;;
36573;SDS011;22578;42.668;23.232;2023-03-02T08:51:04;1.10;;;1.10;;
36573;SDS011;22578;42.668;23.232;2023-03-02T08:54:29;1.75;;;1.65;;
36573;SDS011;22578;42.668;23.232;2023-03-02T08:57:50;1.73;;;1.63;;
36573;SDS011;22578;42.668;23.232;2023-03-02T09:01:12;1.00;;;1.00;;
36573;SDS011;22578;42.668;23.232;2023-03-02T09:04:34;1.33;;;1.30;;
36573;SDS011;22578;42.668;23.232;2023-03-02T09:07:54;2.45;;;2.25;;
36573;SDS011;22578;42.668;23.232;2023-03-02T09:11:15;1.75;;;1.65;;
36573;SDS011;22578;42.668;23.232;2023-03-02T09:14:35;4.28;;;2.60;;
36573;SDS011;22578;42.668;23.232;2023-03-02T09:17:55;1.10;;;1.10;;
36573;SDS011;22578;42.668;23.232;2023-03-02T09:21:16;1.15;;;1.15;;
36573;SDS011;22578;42.668;23.232;2023-03-02T09:24:36;1.65;;;1.55;;
36573;SDS011;22578;42.668;23.232;2023-03-02T09:27:57;1.75;;;1.65;;
36573;SDS011;22578;42.668;23.232;2023-03-02T09:31:17;1.55;;;1.45;;
36573;SDS011;22578;42.668;23.232;2023-03-02T09:34:38;2.08;;;1.80;;
36573;SDS011;22578;42.668;23.232;2023-03-02T09:37:58;3.10;;;2.03;;
36573;SDS011;22578;42.668;23.232;2023-03-02T09:55:36;1.20;;;1.20;;
36573;SDS011;22578;42.668;23.232;2023-03-02T09:58:58;2.83;;;2.55;;
36573;SDS011;22578;42.668;23.232;2023-03-02T10:02:29;1.30;;;1.30;;
36573;SDS011;22578;42.668;23.232;2023-03-02T10:05:54;1.75;;;1.65;;
36573;SDS011;22578;42.668;23.232;2023-03-02T10:09:15;1.00;;;1.00;;
36573;SDS011;22578;42.668;23.232;2023-03-02T10:12:52;1.13;;;1.13;;
36573;SDS011;22578;42.668;23.232;2023-03-02T10:20:04;1.75;;;1.65;;
36573;SDS011;22578;42.668;23.232;2023-03-02T10:23:41;1.00;;;1.00;;
36573;SDS011;22578;42.668;23.232;2023-03-02T10:27:30;1.42;;;1.40;;
36573;SDS011;22578;42.668;23.232;2023-03-02T10:34:28;1.10;;;1.10;;
36573;SDS011;22578;42.668;23.232;2023-03-02T10:37:50;2.35;;;2.15;;
36573;SDS011;22578;42.668;23.232;2023-03-02T10:41:13;1.92;;;1.83;;
36573;SDS011;22578;42.668;23.232;2023-03-02T10:44:38;1.40;;;1.35;;
36573;SDS011;22578;42.668;23.232;2023-03-02T10:48:04;1.20;;;1.20;;
36573;SDS011;22578;42.668;23.232;2023-03-02T10:51:30;1.05;;;1.05;;
36573;SDS011;22578;42.668;23.232;2023-03-02T10:55:02;1.10;;;1.10;;
36573;SDS011;22578;42.668;23.232;2023-03-02T11:05:28;0.98;;;0.98;;
36573;SDS011;22578;42.668;23.232;2023-03-02T11:08:56;1.17;;;1.17;;
36573;SDS011;22578;42.668;23.232;2023-03-02T11:12:22;1.13;;;1.13;;
36573;SDS011;22578;42.668;23.232;2023-03-02T11:15:43;1.73;;;1.63;;
36573;SDS011;22578;42.668;23.232;2023-03-02T11:26:43;1.10;;;1.10;;
36573;SDS011;22578;42.668;23.232;2023-03-02T11:44:33;1.63;;;1.50;;
36573;SDS011;22578;42.668;23.232;2023-03-02T11:48:00;1.40;;;1.40;;
36573;SDS011;22578;42.668;23.232;2023-03-02T11:51:34;1.30;;;1.20;;
36573;SDS011;22578;42.668;23.232;2023-03-02T11:58:31;2.67;;;2.42;;
36573;SDS011;22578;42.668;23.232;2023-03-02T12:01:52;1.02;;;1.02;;
36573;SDS011;22578;42.668;23.232;2023-03-02T12:05:23;1.35;;;1.30;;
36573;SDS011;22578;42.668;23.232;2023-03-02T12:08:45;2.13;;;2.03;;
36573;SDS011;22578;42.668;23.232;2023-03-02T12:15:51;2.38;;;2.22;;
36573;SDS011;22578;42.668;23.232;2023-03-02T12:19:13;2.53;;;2.08;;
36573;SDS011;22578;42.668;23.232;2023-03-02T12:22:47;1.60;;;1.33;;
36573;SDS011;22578;42.668;23.232;2023-03-02T12:29:41;1.00;;;1.00;;
36573;SDS011;22578;42.668;23.232;2023-03-02T12:36:34;1.20;;;1.20;;
36573;SDS011;22578;42.668;23.232;2023-03-02T12:47:28;1.98;;;1.88;;
36573;SDS011;22578;42.668;23.232;2023-03-02T12:50:49;1.45;;;1.40;;
36573;SDS011;22578;42.668;23.232;2023-03-02T12:54:23;1.50;;;1.40;;
36573;SDS011;22578;42.668;23.232;2023-03-02T12:57:48;1.58;;;1.48;;
36573;SDS011;22578;42.668;23.232;2023-03-02T13:01:16;1.83;;;1.73;;
36573;SDS011;22578;42.668;23.232;2023-03-02T13:04:43;1.25;;;1.25;;
36573;SDS011;22578;42.668;23.232;2023-03-02T13:08:05;1.00;;;1.00;;
36573;SDS011;22578;42.668;23.232;2023-03-02T13:11:27;1.92;;;1.70;;
36573;SDS011;22578;42.668;23.232;2023-03-02T13:14:52;2.28;;;2.17;;
36573;SDS011;22578;42.668;23.232;2023-03-02T13:18:14;1.17;;;1.17;;
36573;SDS011;22578;42.668;23.232;2023-03-02T13:21:35;1.23;;;1.23;;
36573;SDS011;22578;42.668;23.232;2023-03-02T13:24:58;1.20;;;1.15;;
36573;SDS011;22578;42.668;23.232;2023-03-02T13:31:49;1.00;;;1.00;;
36573;SDS011;22578;42.668;23.232;2023-03-02T13:35:20;1.10;;;1.10;;
36573;SDS011;22578;42.668;23.232;2023-03-02T13:38:44;1.10;;;1.10;;
36573;SDS011;22578;42.668;23.232;2023-03-02T13:42:22;1.60;;;1.50;;
36573;SDS011;22578;42.668;23.232;2023-03-02T13:45:52;1.60;;;1.52;;
36573;SDS011;22578;42.668;23.232;2023-03-02T13:49:23;1.65;;;1.55;;
36573;SDS011;22578;42.668;23.232;2023-03-02T13:52:48;2.03;;;1.92;;
36573;SDS011;22578;42.668;23.232;2023-03-02T13:56:09;1.95;;;1.85;;
36573;SDS011;22578;42.668;23.232;2023-03-02T13:59:34;1.10;;;1.10;;
36573;SDS011;22578;42.668;23.232;2023-03-02T14:02:55;1.10;;;1.10;;
36573;SDS011;22578;42.668;23.232;2023-03-02T14:06:15;2.65;;;1.95;;
36573;SDS011;22578;42.668;23.232;2023-03-02T14:09:37;1.15;;;1.15;;
36573;SDS011;22578;42.668;23.232;2023-03-02T14:13:02;1.25;;;1.20;;
36573;SDS011;22578;42.668;23.232;2023-03-02T14:16:25;1.15;;;1.15;;
36573;SDS011;22578;42.668;23.232;2023-03-02T14:19:45;1.33;;;1.33;;
36573;SDS011;22578;42.668;23.232;2023-03-02T14:23:11;1.25;;;1.25;;
36573;SDS011;22578;42.668;23.232;2023-03-02T14:26:38;1.00;;;1.00;;
36573;SDS011;22578;42.668;23.232;2023-03-02T14:29:59;1.00;;;1.00;;
36573;SDS011;22578;42.668;23.232;2023-03-02T14:33:20;1.30;;;1.30;;
36573;SDS011;22578;42.668;23.232;2023-03-02T14:36:42;1.10;;;1.10;;
36573;SDS011;22578;42.668;23.232;2023-03-02T14:40:04;1.27;;;1.27;;
36573;SDS011;22578;42.668;23.232;2023-03-02T14:43:28;1.00;;;1.00;;
36573;SDS011;22578;42.668;23.232;2023-03-02T14:46:49;1.33;;;1.33;;
36573;SDS011;22578;42.668;23.232;2023-03-02T14:50:10;1.25;;;1.25;;
36573;SDS011;22578;42.668;23.232;2023-03-02T14:53:31;1.20;;;1.20;;
36573;SDS011;22578;42.668;23.232;2023-03-02T14:56:53;1.30;;;1.30;;
36573;SDS011;22578;42.668;23.232;2023-03-02T15:00:13;1.30;;;1.30;;
36573;SDS011;22578;42.668;23.232;2023-03-02T15:03:34;1.42;;;1.42;;
36573;SDS011;22578;42.668;23.232;2023-03-02T15:06:54;1.58;;;1.48;;
36573;SDS011;22578;42.668;23.232;2023-03-02T15:10:16;1.90;;;1.80;;
36573;SDS011;22578;42.668;23.232;2023-03-02T15:13:37;1.73;;;1.63;;
36573;SDS011;22578;42.668;23.232;2023-03-02T15:16:58;1.88;;;1.77;;
36573;SDS011;22578;42.668;23.232;2023-03-02T15:20:18;1.20;;;1.20;;
36573;SDS011;22578;42.668;23.232;2023-03-02T15:23:39;1.60;;;1.50;;
36573;SDS011;22578;42.668;23.232;2023-03-02T15:26:59;1.10;;;1.10;;
36573;SDS011;22578;42.668;23.232;2023-03-02T15:30:20;3.42;;;1.77;;
36573;SDS011;22578;42.668;23.232;2023-03-02T15:33:43;1.95;;;1.85;;
36573;SDS011;22578;42.668;23.232;2023-03-02T15:37:06;1.52;;;1.48;;
36573;SDS011;22578;42.668;23.232;2023-03-02T15:40:26;1.60;;;1.50;;
36573;SDS011;22578;42.668;23.232;2023-03-02T15:43:50;1.35;;;1.25;;
36573;SDS011;22578;42.668;23.232;2023-03-02T15:47:11;1.60;;;1.50;;
36573;SDS011;22578;42.668;23.232;2023-03-02T15:50:31;1.63;;;1.52;;
36573;SDS011;22578;42.668;23.232;2023-03-02T15:53:51;1.35;;;1.35;;
36573;SDS011;22578;42.668;23.232;2023-03-02T15:57:12;2.47;;;2.30;;
36573;SDS011;22578;42.668;23.232;2023-03-02T16:00:32;1.20;;;1.20;;
36573;SDS011;22578;42.668;23.232;2023-03-02T16:03:57;1.67;;;1.60;;
36573;SDS011;22578;42.668;23.232;2023-03-02T16:07:18;1.42;;;1.40;;
36573;SDS011;22578;42.668;23.232;2023-03-02T16:10:38;1.95;;;1.27;;
36573;SDS011;22578;42.668;23.232;2023-03-02T16:14:02;1.30;;;1.20;;
36573;SDS011;22578;42.668;23.232;2023-03-02T16:17:22;1.10;;;1.10;;
36573;SDS011;22578;42.668;23.232;2023-03-02T16:20:43;1.60;;;1.52;;
36573;SDS011;22578;42.668;23.232;2023-03-02T16:24:04;1.10;;;1.10;;
36573;SDS011;22578;42.668;23.232;2023-03-02T16:27:25;1.30;;;1.30;;
36573;SDS011;22578;42.668;23.232;2023-03-02T16:30:45;2.00;;;1.90;;
36573;SDS011;22578;42.668;23.232;2023-03-02T16:34:06;2.25;;;2.05;;
36573;SDS011;22578;42.668;23.232;2023-03-02T16:37:28;1.00;;;1.00;;
36573;SDS011;22578;42.668;23.232;2023-03-02T16:40:48;1.23;;;1.23;;
36573;SDS011;22578;42.668;23.232;2023-03-02T16:44:09;1.20;;;1.20;;
36573;SDS011;22578;42.668;23.232;2023-03-02T16:47:30;1.70;;;1.65;;
36573;SDS011;22578;42.668;23.232;2023-03-02T16:50:55;1.20;;;1.20;;
36573;SDS011;22578;42.668;23.232;2023-03-02T16:54:16;1.40;;;1.40;;
36573;SDS011;22578;42.668;23.232;2023-03-02T16:57:37;1.30;;;1.30;;
36573;SDS011;22578;42.668;23.232;2023-03-02T17:00:57;1.30;;;1.30;;
36573;SDS011;22578;42.668;23.232;2023-03-02T17:04:17;1.52;;;1.42;;
36573;SDS011;22578;42.668;23.232;2023-03-02T17:07:40;1.20;;;1.20;;
36573;SDS011;22578;42.668;23.232;2023-03-02T17:11:00;1.40;;;1.35;;
36573;SDS011;22578;42.668;23.232;2023-03-02T17:14:21;1.45;;;1.45;;
36573;SDS011;22578;42.668;23.232;2023-03-02T17:17:41;1.67;;;1.58;;
36573;SDS011;22578;42.668;23.232;2023-03-02T17:21:02;1.67;;;1.58;;
36573;SDS011;22578;42.668;23.232;2023-03-02T17:24:23;1.40;;;1.40;;
36573;SDS011;22578;42.668;23.232;2023-03-02T17:27:44;1.88;;;1.77;;
36573;SDS011;22578;42.668;23.232;2023-03-02T17:31:04;1.60;;;1.52;;
36573;SDS011;22578;42.668;23.232;2023-03-02T17:34:25;1.40;;;1.38;;
36573;SDS011;22578;42.668;23.232;2023-03-02T17:37:50;1.35;;;1.35;;
36573;SDS011;22578;42.668;23.232;2023-03-02T17:41:10;1.10;;;1.10;;
36573;SDS011;22578;42.668;23.232;2023-03-02T17:44:30;1.13;;;1.13;;
36573;SDS011;22578;42.668;23.232;2023-03-02T17:47:54;1.45;;;1.42;;
36573;SDS011;22578;42.668;23.232;2023-03-02T17:51:15;1.20;;;1.20;;
36573;SDS011;22578;42.668;23.232;2023-03-02T17:54:36;1.00;;;1.00;;
36573;SDS011;22578;42.668;23.232;2023-03-02T17:57:56;1.20;;;1.20;;
36573;SDS011;22578;42.668;23.232;2023-03-02T18:01:17;1.10;;;1.10;;
36573;SDS011;22578;42.668;23.232;2023-03-02T18:04:38;1.70;;;1.60;;
36573;SDS011;22578;42.668;23.232;2023-03-02T18:07:58;1.60;;;1.52;;
36573;SDS011;22578;42.668;23.232;2023-03-02T18:11:19;2.10;;;1.98;;
36573;SDS011;22578;42.668;23.232;2023-03-02T18:14:40;1.23;;;1.23;;
36573;SDS011;22578;42.668;23.232;2023-03-02T18:18:01;1.45;;;1.35;;
36573;SDS011;22578;42.668;23.232;2023-03-02T18:21:21;1.67;;;1.58;;
36573;SDS011;22578;42.668;23.232;2023-03-02T18:24:42;4.85;;;3.15;;
36573;SDS011;22578;42.668;23.232;2023-03-02T18:28:02;1.45;;;1.45;;
36573;SDS011;22578;42.668;23.232;2023-03-02T18:31:22;1.30;;;1.30;;
36573;SDS011;22578;42.668;23.232;2023-03-02T18:34:43;2.22;;;2.13;;
36573;SDS011;22578;42.668;23.232;2023-03-02T18:38:03;3.00;;;2.80;;
36573;SDS011;22578;42.668;23.232;2023-03-02T18:41:24;1.73;;;1.63;;
36573;SDS011;22578;42.668;23.232;2023-03-02T18:44:45;1.30;;;1.30;;
36573;SDS011;22578;42.668;23.232;2023-03-02T18:48:05;12.82;;;11.82;;
36573;SDS011;22578;42.668;23.232;2023-03-02T18:51:25;13.73;;;12.50;;
36573;SDS011;22578;42.668;23.232;2023-03-02T18:54:46;8.57;;;7.57;;
36573;SDS011;22578;42.668;23.232;2023-03-02T18:58:09;20.15;;;18.30;;
36573;SDS011;22578;42.668;23.232;2023-03-02T19:01:36;14.18;;;12.82;;
36573;SDS011;22578;42.668;23.232;2023-03-02T19:04:56;4.82;;;4.40;;
36573;SDS011;22578;42.668;23.232;2023-03-02T19:08:16;9.65;;;7.22;;
36573;SDS011;22578;42.668;23.232;2023-03-02T19:11:37;11.43;;;6.10;;
36573;SDS011;22578;42.668;23.232;2023-03-02T19:14:57;3.58;;;3.28;;
36573;SDS011;22578;42.668;23.232;2023-03-02T19:18:19;3.50;;;2.17;;
36573;SDS011;22578;42.668;23.232;2023-03-02T19:21:40;1.58;;;1.48;;
36573;SDS011;22578;42.668;23.232;2023-03-02T19:25:00;7.50;;;6.15;;
36573;SDS011;22578;42.668;23.232;2023-03-02T19:28:24;11.07;;;8.18;;
36573;SDS011;22578;42.668;23.232;2023-03-02T19:31:46;4.10;;;3.75;;
36573;SDS011;22578;42.668;23.232;2023-03-02T19:35:07;2.25;;;2.08;;
36573;SDS011;22578;42.668;23.232;2023-03-02T19:38:29;1.40;;;1.38;;
36573;SDS011;22578;42.668;23.232;2023-03-02T19:41:50;1.88;;;1.77;;
36573;SDS011;22578;42.668;23.232;2023-03-02T19:45:12;1.65;;;1.55;;
36573;SDS011;22578;42.668;23.232;2023-03-02T19:48:35;1.33;;;1.33;;
36573;SDS011;22578;42.668;23.232;2023-03-02T19:51:56;1.52;;;1.42;;
36573;SDS011;22578;42.668;23.232;2023-03-02T19:55:17;1.65;;;1.55;;
36573;SDS011;22578;42.668;23.232;2023-03-02T19:58:40;1.20;;;1.20;;
36573;SDS011;22578;42.668;23.232;2023-03-02T20:02:06;1.23;;;1.23;;
36573;SDS011;22578;42.668;23.232;2023-03-02T20:05:26;1.83;;;1.73;;
36573;SDS011;22578;42.668;23.232;2023-03-02T20:08:47;2.15;;;2.03;;
36573;SDS011;22578;42.668;23.232;2023-03-02T20:12:11;1.00;;;1.00;;
36573;SDS011;22578;42.668;23.232;2023-03-02T20:15:33;1.05;;;1.05;;
36573;SDS011;22578;42.668;23.232;2023-03-02T20:18:57;1.17;;;1.17;;
36573;SDS011;22578;42.668;23.232;2023-03-02T20:22:19;1.00;;;1.00;;
36573;SDS011;22578;42.668;23.232;2023-03-02T20:25:41;1.17;;;1.17;;
36573;SDS011;22578;42.668;23.232;2023-03-02T20:29:02;1.00;;;1.00;;
36573;SDS011;22578;42.668;23.232;2023-03-02T20:32:24;1.48;;;1.38;;
36573;SDS011;22578;42.668;23.232;2023-03-02T20:35:44;1.67;;;1.58;;
36573;SDS011;22578;42.668;23.232;2023-03-02T20:39:07;1.20;;;1.20;;
36573;SDS011;22578;42.668;23.232;2023-03-02T20:42:30;1.20;;;1.20;;
36573;SDS011;22578;42.668;23.232;2023-03-02T20:45:53;1.60;;;1.50;;
36573;SDS011;22578;42.668;23.232;2023-03-02T20:49:13;1.05;;;1.05;;
36573;SDS011;22578;42.668;23.232;2023-03-02T20:52:34;2.15;;;1.98;;
36573;SDS011;22578;42.668;23.232;2023-03-02T20:55:56;1.13;;;1.13;;
36573;SDS011;22578;42.668;23.232;2023-03-02T20:59:16;1.10;;;1.10;;
36573;SDS011;22578;42.668;23.232;2023-03-02T21:02:37;2.15;;;2.05;;
36573;SDS011;22578;42.668;23.232;2023-03-02T21:05:57;1.17;;;1.17;;
36573;SDS011;22578;42.668;23.232;2023-03-02T21:09:18;1.52;;;1.48;;
36573;SDS011;22578;42.668;23.232;2023-03-02T21:12:39;1.20;;;1.20;;
36573;SDS011;22578;42.668;23.232;2023-03-02T21:16:00;1.15;;;1.13;;
36573;SDS011;22578;42.668;23.232;2023-03-02T21:19:21;1.65;;;1.60;;
36573;SDS011;22578;42.668;23.232;2023-03-02T21:22:41;1.08;;;1.08;;